Time;durP1;ratioP1;P1;durP2;ratioP2;P2;SDS_P1;SDS_P2;PMS_P1;PMS_P2;Temp;Humidity;BMP_temperature;BMP_pressure;BME280_temperature;BME280_humidity;BME280_pressure;Samples;Min_cycle;Max_cycle;Signal;HPM_P1;HPM_P2
2021/12/24 00:01:04;;;;;;;11.00;6.40;;;;;;;-2.88;88.36;95399.69;107926;1282;35429;-76
2021/12/24 00:03:33;;;;;;;13.50;8.00;;;;;;;-2.89;88.94;95390.64;107892;1283;39366;-75
2021/12/24 00:06:25;;;;;;;14.80;8.30;;;;;;;-2.92;89.44;95395.92;108089;1283;40818;-76
2021/12/24 00:08:55;;;;;;;15.20;8.20;;;;;;;-2.94;90.10;95379.21;108147;1282;35623;-76
2021/12/24 00:11:23;;;;;;;14.10;7.70;;;;;;;-2.97;90.56;95375.45;107975;1283;30117;-76
2021/12/24 00:13:53;;;;;;;17.00;8.30;;;;;;;-3.00;90.95;95382.35;107932;1281;38672;-76
2021/12/24 00:16:24;;;;;;;14.80;8.00;;;;;;;-3.00;91.31;95376.38;107900;1284;45770;-75
2021/12/24 00:18:58;;;;;;;11.30;7.00;;;;;;;-3.01;91.89;95381.92;108034;1284;31067;-76
2021/12/24 00:35:45;;;;;;;16.80;9.00;;;;;;;-3.03;95.65;95368.48;108110;1283;32390;-75
2021/12/24 00:38:13;;;;;;;13.90;7.20;;;;;;;-3.03;95.99;95366.77;107895;1283;37317;-75
2021/12/24 00:40:44;;;;;;;13.60;8.70;;;;;;;-3.02;96.32;95367.48;107898;1284;34321;-75
2021/12/24 00:43:11;;;;;;;;;;;;;;;-3.00;96.63;95375.23;108113;1284;30546;-76
2021/12/24 00:45:42;;;;;;;16.80;9.40;;;;;;;-2.99;97.16;95360.95;108143;1283;31952;-75
2021/12/24 00:48:14;;;;;;;15.60;9.10;;;;;;;-2.99;97.48;95353.58;107922;1283;39451;-76
2021/12/24 00:50:52;;;;;;;13.50;7.30;;;;;;;-3.00;97.82;95350.72;108092;1282;31783;-76
2021/12/24 00:56:10;;;;;;;13.60;7.50;;;;;;;-2.98;98.13;95346.19;108082;1282;37993;-76
2021/12/24 00:58:39;;;;;;;15.40;7.70;;;;;;;-2.98;98.29;95338.92;107900;1283;38117;-75
2021/12/24 01:01:10;;;;;;;15.90;8.80;;;;;;;-2.99;98.55;95343.64;108141;1283;28788;-76
2021/12/24 01:03:38;;;;;;;15.70;8.70;;;;;;;-3.01;98.81;95333.79;108053;1283;34672;-76
2021/12/24 01:06:07;;;;;;;14.90;8.10;;;;;;;-3.03;98.96;95326.08;108073;1283;39783;-76
2021/12/24 01:08:35;;;;;;;13.90;8.20;;;;;;;-3.05;99.13;95312.84;107877;1283;39841;-75
2021/12/24 01:11:06;;;;;;;14.00;8.20;;;;;;;-3.08;99.43;95315.39;108121;1282;32446;-75
2021/12/24 01:13:34;;;;;;;14.80;8.20;;;;;;;-3.10;99.71;95327.71;107891;1281;40145;-75
2021/12/24 01:16:08;;;;;;;12.70;7.10;;;;;;;-3.12;99.65;95317.61;107912;1283;34605;-76
2021/12/24 01:18:45;;;;;;;15.30;9.90;;;;;;;-3.14;99.81;95304.50;107899;1284;42528;-75
2021/12/24 01:21:26;;;;;;;16.70;8.60;;;;;;;-3.16;99.79;95310.59;107916;1283;37694;-76
2021/12/24 01:23:58;;;;;;;10.40;6.80;;;;;;;-3.17;99.92;95314.80;107953;1283;43910;-75
2021/12/24 01:26:36;;;;;;;14.90;8.00;;;;;;;-3.19;99.99;95306.77;107962;1283;34553;-75
2021/12/24 01:29:36;;;;;;;11.30;7.60;;;;;;;-3.21;99.99;95298.19;107903;1283;34043;-75
2021/12/24 01:40:50;;;;;;;15.30;8.60;;;;;;;-3.26;99.89;95276.28;107800;1283;34065;-75
2021/12/24 01:43:19;;;;;;;14.00;8.00;;;;;;;-3.26;99.98;95281.11;107897;1284;35013;-76
2021/12/24 01:45:50;;;;;;;14.10;8.50;;;;;;;-3.25;99.96;95268.53;107907;1284;36901;-75
2021/12/24 01:48:19;;;;;;;13.80;8.90;;;;;;;-3.25;99.98;95257.22;108081;1284;34583;-75
2021/12/24 01:50:51;;;;;;;10.30;6.80;;;;;;;-3.27;100.00;95259.73;107903;1283;34620;-75
2021/12/24 01:53:21;;;;;;;15.10;9.30;;;;;;;-3.28;99.95;95245.98;107905;1283;31417;-75
2021/12/24 01:55:51;;;;;;;13.60;7.70;;;;;;;-3.28;100.00;95240.22;107920;1283;35336;-75
2021/12/24 01:58:20;;;;;;;17.80;9.60;;;;;;;-3.25;99.98;95239.91;107923;1281;28320;-75
2021/12/24 02:00:51;;;;;;;15.70;8.60;;;;;;;-3.25;100.00;95230.11;108033;1282;44916;-75
2021/12/24 02:03:20;;;;;;;16.10;9.80;;;;;;;-3.27;99.99;95240.51;107924;1283;31987;-75
2021/12/24 02:05:51;;;;;;;16.40;8.60;;;;;;;-3.24;99.97;95232.38;107872;1283;59252;-75
2021/12/24 02:08:19;;;;;;;17.80;8.70;;;;;;;-3.22;99.75;95222.74;107861;1283;34688;-74
2021/12/24 02:10:51;;;;;;;14.20;8.20;;;;;;;-3.19;99.77;95219.54;108053;1283;40511;-75
2021/12/24 02:13:19;;;;;;;13.90;8.50;;;;;;;-3.17;99.83;95227.36;108132;1283;35494;-75
2021/12/24 02:16:02;;;;;;;13.60;8.10;;;;;;;-3.15;99.85;95204.44;108057;1284;38591;-75
2021/12/24 02:28:14;;;;;;;16.60;9.60;;;;;;;-3.14;99.95;95200.52;107933;1283;30366;-75
2021/12/24 02:30:00;;;;;;;17.70;9.40;;;;;;;-3.01;100.00;95178.92;107869;1284;38144;-75
2021/12/24 02:32:28;;;;;;;16.90;9.30;;;;;;;-2.96;100.00;95173.83;107921;1283;30938;-75
2021/12/24 02:34:56;;;;;;;15.40;8.20;;;;;;;-2.92;100.00;95163.02;107985;1284;34455;-75
2021/12/24 02:37:24;;;;;;;17.70;10.20;;;;;;;-2.91;100.00;95163.31;107950;1284;32179;-75
2021/12/24 02:39:54;;;;;;;17.20;8.50;;;;;;;-2.89;100.00;95162.20;107943;1283;41193;-75
2021/12/24 02:42:23;;;;;;;17.00;9.10;;;;;;;-2.87;100.00;95157.09;107936;1284;47735;-75
2021/12/24 02:44:52;;;;;;;15.20;8.50;;;;;;;-2.86;100.00;95148.97;108061;1283;40767;-75
2021/12/24 02:47:54;;;;;;;14.50;8.80;;;;;;;-2.82;100.00;95136.08;108087;1282;40118;-75
2021/12/24 02:55:54;;;;;;;13.80;7.60;;;;;;;-2.77;100.00;95135.89;108135;1284;38099;-75
2021/12/24 02:58:23;;;;;;;12.20;6.80;;;;;;;-2.72;100.00;95120.56;108168;1284;32678;-76
2021/12/24 03:00:54;;;;;;;14.10;8.90;;;;;;;-2.69;100.00;95110.19;108083;1282;37882;-75
2021/12/24 03:03:22;;;;;;;18.50;9.00;;;;;;;-2.68;100.00;95115.03;108136;1284;39766;-75
2021/12/24 03:05:51;;;;;;;14.90;7.90;;;;;;;-2.66;100.00;95114.62;108124;1283;31806;-75
2021/12/24 03:08:19;;;;;;;14.20;9.00;;;;;;;-2.64;100.00;95110.81;108098;1283;35693;-75
2021/12/24 03:10:47;;;;;;;15.80;9.50;;;;;;;-2.60;100.00;95117.10;108079;1284;32927;-75
2021/12/24 03:13:16;;;;;;;14.80;8.10;;;;;;;-2.56;100.00;95106.48;108122;1284;36185;-75
2021/12/24 03:15:47;;;;;;;15.90;9.80;;;;;;;-2.53;100.00;95103.27;108073;1284;36231;-75
2021/12/24 03:18:22;;;;;;;16.50;9.30;;;;;;;-2.53;100.00;95093.33;108103;1284;33761;-75
2021/12/24 03:20:58;;;;;;;16.20;9.90;;;;;;;-2.49;100.00;95088.86;108090;1282;32880;-75
2021/12/24 03:23:35;;;;;;;14.60;9.20;;;;;;;-2.44;100.00;95082.98;108138;1284;39179;-75
2021/12/24 03:26:05;;;;;;;13.90;8.30;;;;;;;-2.38;100.00;95080.39;108073;1283;38304;-75
2021/12/24 03:28:33;;;;;;;15.40;7.80;;;;;;;-2.34;100.00;95073.81;108082;1284;35874;-75
2021/12/24 03:31:02;;;;;;;14.80;8.40;;;;;;;-2.33;100.00;95078.85;108090;1284;40011;-76
2021/12/24 03:33:30;;;;;;;13.90;8.80;;;;;;;-2.32;100.00;95085.15;108108;1283;36522;-75
2021/12/24 03:35:59;;;;;;;15.10;9.30;;;;;;;-2.24;100.00;95080.03;108110;1283;34361;-75
2021/12/24 03:38:27;;;;;;;14.50;9.60;;;;;;;-2.20;100.00;95069.79;108132;1284;37872;-75
2021/12/24 03:40:55;;;;;;;12.00;7.20;;;;;;;-2.16;100.00;95079.86;108135;1284;41005;-75
2021/12/24 03:43:23;;;;;;;10.20;6.70;;;;;;;-2.01;100.00;95080.72;108147;1283;33919;-75
2021/12/24 03:46:00;;;;;;;9.60;6.40;;;;;;;-1.86;100.00;95082.49;108095;1283;36139;-75
2021/12/24 03:48:42;;;;;;;12.50;7.40;;;;;;;-1.72;100.00;95085.44;108064;1284;36106;-75
2021/12/24 03:51:27;;;;;;;14.00;7.40;;;;;;;-1.71;100.00;95086.50;108065;1284;38798;-75
2021/12/24 03:56:42;;;;;;;10.70;6.50;;;;;;;-1.47;100.00;95086.98;107991;1284;40735;-75
2021/12/24 03:59:12;;;;;;;9.60;6.90;;;;;;;-1.45;100.00;95089.23;107914;1284;35320;-75
2021/12/24 04:01:41;;;;;;;10.00;7.40;;;;;;;-1.51;100.00;95085.18;107920;1282;31808;-75
2021/12/24 04:04:09;;;;;;;14.70;8.70;;;;;;;-1.55;100.00;95062.31;107868;1283;47535;-75
2021/12/24 04:06:38;;;;;;;15.50;7.80;;;;;;;-1.62;100.00;95066.00;107924;1284;45326;-75
2021/12/24 04:09:08;;;;;;;13.50;8.30;;;;;;;-1.69;100.00;95068.09;107859;1284;36557;-75
2021/12/24 04:11:39;;;;;;;12.30;7.30;;;;;;;-1.70;100.00;95063.33;108093;1284;40240;-75
2021/12/24 04:14:07;;;;;;;12.10;7.40;;;;;;;-1.69;100.00;95057.08;107922;1284;38507;-75
2021/12/24 04:16:36;;;;;;;11.90;7.70;;;;;;;-1.70;100.00;95062.77;108111;1284;36915;-75
2021/12/24 04:19:22;;;;;;;13.10;6.50;;;;;;;-1.71;100.00;95069.35;107906;1283;38662;-74
2021/12/24 04:24:52;;;;;;;13.70;8.50;;;;;;;-1.71;100.00;95060.55;107892;1281;47211;-75
2021/12/24 04:27:23;;;;;;;14.00;6.70;;;;;;;-1.72;100.00;95062.05;108129;1284;39810;-75
2021/12/24 04:29:59;;;;;;;11.80;7.90;;;;;;;-1.69;100.00;95061.33;107944;1283;41169;-75
2021/12/24 04:32:37;;;;;;;12.40;7.60;;;;;;;-1.66;100.00;95051.77;107984;1283;31670;-75
2021/12/24 04:35:18;;;;;;;13.90;6.70;;;;;;;-1.67;100.00;95051.08;107912;1284;37498;-75
2021/12/24 04:51:45;;;;;;;10.40;5.90;;;;;;;-1.71;99.89;95044.09;108069;1282;27935;-75
2021/12/24 05:02:46;;;;;;;10.90;7.10;;;;;;;-1.59;99.97;95020.52;108148;1284;30676;-75
2021/12/24 05:05:21;;;;;;;10.10;6.40;;;;;;;-1.54;99.68;95013.21;108058;1284;40046;-75
2021/12/24 05:08:14;;;;;;;12.30;7.00;;;;;;;-1.47;99.43;95019.99;108106;1284;28758;-75
2021/12/24 05:10:43;;;;;;;12.70;7.20;;;;;;;-1.42;98.97;95024.20;108088;1284;34848;-75
2021/12/24 05:13:13;;;;;;;14.30;7.80;;;;;;;-1.41;99.28;95025.45;108026;1284;49497;-75
2021/12/24 05:15:42;;;;;;;;;;;;;;;-1.41;99.16;95025.62;108094;1279;28961;-75
2021/12/24 05:18:29;;;;;;;10.30;5.50;;;;;;;-1.41;99.43;95022.17;108063;1284;47417;-75
2021/12/24 05:23:44;;;;;;;9.30;5.80;;;;;;;-1.31;99.91;95018.41;107916;1282;36223;-75
2021/12/24 05:26:13;;;;;;;9.10;5.00;;;;;;;-1.27;99.98;95020.92;108091;1284;30943;-75
2021/12/24 05:28:42;;;;;;;7.50;5.20;;;;;;;-1.17;100.00;95015.51;108095;1284;28778;-75
2021/12/24 05:31:10;;;;;;;9.40;5.80;;;;;;;-1.10;100.00;95005.66;108055;1284;39731;-75
2021/12/24 05:33:38;;;;;;;8.70;5.00;;;;;;;-1.07;100.00;95009.23;108026;1278;30682;-75
2021/12/24 05:36:06;;;;;;;7.60;5.10;;;;;;;-1.02;100.00;95008.60;108041;1284;40468;-75
2021/12/24 05:38:35;;;;;;;10.50;5.70;;;;;;;-0.89;100.00;95004.88;108034;1283;37500;-75
2021/12/24 05:41:03;;;;;;;9.30;5.50;;;;;;;-0.78;100.00;94999.89;108075;1282;28565;-76
2021/12/24 05:43:31;;;;;;;8.40;5.60;;;;;;;-0.76;100.00;94997.52;107993;1283;42887;-75
2021/12/24 05:46:00;;;;;;;7.60;4.50;;;;;;;-0.67;100.00;95000.46;108080;1283;31663;-75
2021/12/24 05:48:28;;;;;;;11.90;6.20;;;;;;;-0.57;100.00;94995.95;108031;1283;31908;-76
2021/12/24 05:50:57;;;;;;;10.70;6.50;;;;;;;-0.54;100.00;94993.90;108109;1284;41296;-75
2021/12/24 05:53:26;;;;;;;7.90;5.60;;;;;;;-0.62;99.95;94994.09;108188;1283;33593;-75
2021/12/24 05:55:54;;;;;;;7.50;4.80;;;;;;;-0.65;100.00;94993.19;108149;1284;30420;-75
2021/12/24 05:58:24;;;;;;;9.90;5.00;;;;;;;-0.64;99.98;94998.35;108170;1284;39030;-75
2021/12/24 06:00:52;;;;;;;9.40;5.50;;;;;;;-0.65;99.93;94997.40;108031;1283;37234;-75
2021/12/24 06:03:21;;;;;;;10.10;5.80;;;;;;;-0.70;99.97;94996.17;108042;1282;46187;-75
2021/12/24 06:05:51;;;;;;;10.90;6.70;;;;;;;-0.74;99.93;95001.33;108097;1284;29637;-75
2021/12/24 06:08:20;;;;;;;10.00;6.00;;;;;;;-0.76;99.90;95003.65;108088;1284;46550;-75
2021/12/24 06:10:50;;;;;;;10.40;6.20;;;;;;;-0.77;99.93;95006.40;107959;1283;31179;-75
2021/12/24 06:13:18;;;;;;;10.40;6.00;;;;;;;-0.76;99.86;95017.96;107915;1284;37602;-75
2021/12/24 06:15:49;;;;;;;9.90;6.00;;;;;;;-0.74;99.83;95010.48;108076;1278;31625;-75
2021/12/24 06:18:24;;;;;;;9.40;5.60;;;;;;;-0.73;100.00;95020.17;107957;1282;30514;-75
2021/12/24 06:20:54;;;;;;;6.80;4.10;;;;;;;-0.71;99.99;95019.89;107927;1283;32839;-75
2021/12/24 06:23:24;;;;;;;8.60;6.00;;;;;;;-0.69;99.91;95021.00;108033;1283;45984;-75
2021/12/24 06:25:55;;;;;;;10.60;5.30;;;;;;;-0.65;99.92;95015.93;107950;1283;50537;-75
2021/12/24 06:28:24;;;;;;;10.80;6.80;;;;;;;-0.62;99.86;95020.59;108013;1283;27233;-75
2021/12/24 06:30:53;;;;;;;10.40;6.50;;;;;;;-0.63;99.96;95028.55;107896;1284;42842;-75
2021/12/24 06:33:22;;;;;;;11.10;6.90;;;;;;;-0.65;99.91;95027.08;107894;1282;31202;-75
2021/12/24 06:35:53;;;;;;;10.60;6.50;;;;;;;-0.66;99.97;95029.92;107902;1284;45562;-75
2021/12/24 06:38:23;;;;;;;9.20;6.00;;;;;;;-0.68;100.00;95026.32;107910;1284;36490;-75
2021/12/24 06:40:51;;;;;;;9.30;6.10;;;;;;;-0.69;100.00;95032.40;108023;1283;36139;-75
2021/12/24 06:43:19;;;;;;;10.30;5.90;;;;;;;-0.70;100.00;95034.84;107914;1283;32998;-75
2021/12/24 06:45:49;;;;;;;11.10;7.40;;;;;;;-0.67;100.00;95033.05;107877;1284;43214;-75
2021/12/24 06:48:18;;;;;;;9.20;5.70;;;;;;;-0.65;100.00;95029.73;108025;1282;43653;-75
2021/12/24 06:50:50;;;;;;;10.30;5.00;;;;;;;-0.66;100.00;95036.80;107848;1284;46161;-75
2021/12/24 06:53:18;;;;;;;10.30;5.80;;;;;;;-0.65;100.00;95040.45;108065;1282;30114;-75
2021/12/24 06:55:47;;;;;;;9.30;5.40;;;;;;;-0.62;100.00;95035.05;107916;1284;30273;-74
2021/12/24 06:58:17;;;;;;;8.40;5.80;;;;;;;-0.58;100.00;95034.73;107955;1284;27636;-74
2021/12/24 07:00:46;;;;;;;8.80;5.50;;;;;;;-0.56;100.00;95036.40;108040;1282;38532;-74
2021/12/24 07:03:15;;;;;;;9.90;6.40;;;;;;;-0.56;100.00;95044.60;107915;1284;41735;-75
2021/12/24 07:05:43;;;;;;;9.00;6.30;;;;;;;-0.53;100.00;95035.20;107875;1282;36544;-74
2021/12/24 07:08:11;;;;;;;7.50;4.30;;;;;;;-0.52;100.00;95028.66;107953;1283;26720;-74
2021/12/24 07:10:40;;;;;;;10.80;6.50;;;;;;;-0.48;100.00;95035.23;107915;1284;35593;-74
2021/12/24 07:13:08;;;;;;;8.60;5.80;;;;;;;-0.47;100.00;95035.50;107873;1284;36765;-75
2021/12/24 07:15:36;;;;;;;10.40;6.10;;;;;;;-0.45;100.00;95037.13;107925;1283;31196;-75
2021/12/24 07:18:04;;;;;;;9.30;6.20;;;;;;;-0.41;100.00;95030.10;108097;1283;32207;-75
2021/12/24 07:20:33;;;;;;;9.30;5.80;;;;;;;-0.37;100.00;95040.48;107874;1283;43222;-75
2021/12/24 07:23:01;;;;;;;11.70;6.50;;;;;;;-0.33;100.00;95035.94;108033;1283;41575;-75
2021/12/24 07:25:29;;;;;;;7.20;5.20;;;;;;;-0.29;100.00;95035.05;107932;1283;41000;-75
2021/12/24 07:27:58;;;;;;;8.50;5.00;;;;;;;-0.27;100.00;95042.35;107943;1283;40266;-75
2021/12/24 07:30:26;;;;;;;10.80;7.10;;;;;;;-0.24;100.00;95043.83;108058;1283;36213;-75
2021/12/24 07:32:54;;;;;;;10.20;6.20;;;;;;;-0.22;100.00;95045.20;107862;1279;156389;-75
2021/12/24 07:35:23;;;;;;;9.30;5.80;;;;;;;-0.18;100.00;95047.45;107911;1284;39281;-75
2021/12/24 07:37:53;;;;;;;11.30;6.40;;;;;;;-0.14;100.00;95053.39;107958;1283;30974;-75
2021/12/24 07:40:25;;;;;;;10.20;6.50;;;;;;;-0.08;100.00;95054.10;107951;1283;33580;-75
2021/12/24 07:42:54;;;;;;;9.30;5.40;;;;;;;-0.02;100.00;95037.01;108130;1281;42243;-75
2021/12/24 07:45:23;;;;;;;10.30;6.20;;;;;;;0.04;100.00;95038.77;107909;1283;43589;-75
2021/12/24 07:48:06;;;;;;;8.70;5.40;;;;;;;0.07;100.00;95032.59;107943;1283;26196;-75
2021/12/24 07:53:22;;;;;;;8.60;5.70;;;;;;;0.19;100.00;95030.21;108083;1282;31513;-75
2021/12/24 07:55:53;;;;;;;10.80;5.50;;;;;;;0.23;100.00;95027.94;107883;1283;43275;-75
2021/12/24 07:58:22;;;;;;;12.90;7.40;;;;;;;0.26;100.00;95037.02;107921;1282;30446;-75
2021/12/24 08:00:51;;;;;;;12.80;6.10;;;;;;;0.30;100.00;95039.73;107862;1283;46358;-75
2021/12/24 08:03:20;;;;;;;11.70;6.30;;;;;;;0.34;100.00;95038.44;108042;1283;41933;-75
2021/12/24 08:05:49;;;;;;;9.20;6.20;;;;;;;0.44;100.00;95031.98;107925;1282;29427;-75
2021/12/24 08:08:17;;;;;;;8.30;5.70;;;;;;;0.48;100.00;95033.83;107893;1281;43226;-75
2021/12/24 08:10:45;;;;;;;7.90;3.90;;;;;;;0.54;100.00;95027.85;107922;1283;34811;-75
2021/12/24 08:13:14;;;;;;;8.10;3.80;;;;;;;0.76;100.00;95023.36;108046;1283;30867;-74
2021/12/24 08:15:48;;;;;;;7.00;3.80;;;;;;;0.94;100.00;95020.55;107949;1283;27340;-75
2021/12/24 08:18:17;;;;;;;3.90;2.20;;;;;;;1.08;99.96;95020.14;108025;1283;35043;-75
2021/12/24 08:20:45;;;;;;;2.70;2.10;;;;;;;1.25;99.94;95027.95;107903;1284;33941;-75
2021/12/24 08:23:14;;;;;;;3.40;2.00;;;;;;;1.48;99.80;95028.52;107893;1282;43276;-75
2021/12/24 08:25:42;;;;;;;2.90;1.80;;;;;;;1.67;99.39;95038.81;107915;1283;31200;-75
2021/12/24 08:28:11;;;;;;;3.20;1.90;;;;;;;1.74;98.96;95028.95;107902;1284;30918;-75
2021/12/24 08:30:40;;;;;;;5.20;1.80;;;;;;;1.83;98.29;95019.86;108052;1283;36948;-75
2021/12/24 08:33:14;;;;;;;3.20;1.40;;;;;;;1.91;97.72;95018.34;108016;1282;42493;-74
2021/12/24 08:35:42;;;;;;;2.00;1.60;;;;;;;1.97;97.41;95018.29;108060;1283;47094;-75
2021/12/24 08:38:11;;;;;;;2.70;1.70;;;;;;;1.99;97.11;95019.49;108082;1282;33083;-75
2021/12/24 08:40:39;;;;;;;4.60;1.90;;;;;;;2.01;96.87;95023.98;108060;1282;35975;-75
2021/12/24 08:43:08;;;;;;;3.50;1.80;;;;;;;2.04;96.26;95026.33;108027;1283;38531;-74
2021/12/24 08:45:37;;;;;;;;;;;;;;;2.02;96.11;95023.98;108091;1283;32731;-75
2021/12/24 08:48:06;;;;;;;3.10;1.30;;;;;;;2.03;95.81;95023.19;107918;1282;34179;-75
2021/12/24 08:50:34;;;;;;;2.60;1.70;;;;;;;2.03;95.72;95024.92;107897;1283;37523;-74
2021/12/24 08:53:03;;;;;;;2.90;1.80;;;;;;;2.03;95.39;95031.35;107903;1283;36141;-75
2021/12/24 08:55:32;;;;;;;2.70;1.60;;;;;;;2.07;95.04;95028.15;107881;1282;37115;-75
2021/12/24 08:58:02;;;;;;;4.20;2.20;;;;;;;2.09;95.06;95021.34;107890;1282;41389;-74
2021/12/24 09:00:31;;;;;;;3.10;2.10;;;;;;;2.12;94.79;95015.81;107884;1283;46545;-75
2021/12/24 09:03:01;;;;;;;3.60;2.00;;;;;;;2.20;94.73;95017.94;107929;1283;37689;-75
2021/12/24 09:05:31;;;;;;;3.40;2.00;;;;;;;2.22;94.51;95014.54;107868;1283;38097;-75
2021/12/24 09:07:59;;;;;;;4.10;2.30;;;;;;;2.22;94.27;95010.50;107923;1282;38084;-75
2021/12/24 09:10:27;;;;;;;4.60;2.40;;;;;;;2.24;94.29;95011.71;108011;1283;30152;-75
2021/12/24 09:12:57;;;;;;;4.60;2.70;;;;;;;2.25;94.54;95008.64;107925;1284;44088;-75
2021/12/24 09:15:29;;;;;;;3.30;1.80;;;;;;;2.26;94.55;95002.94;107987;1282;31839;-75
2021/12/24 09:18:00;;;;;;;2.50;1.70;;;;;;;2.26;94.68;94999.91;108019;1284;38689;-75
2021/12/24 09:20:36;;;;;;;3.60;2.20;;;;;;;2.27;94.79;94999.73;108085;1282;31892;-75
2021/12/24 09:23:06;;;;;;;4.50;2.00;;;;;;;2.30;94.84;94999.00;107847;1284;38183;-75
2021/12/24 09:25:36;;;;;;;3.10;1.60;;;;;;;2.34;94.85;94991.14;108063;1283;28457;-75
2021/12/24 09:28:05;;;;;;;1.90;1.10;;;;;;;2.40;94.86;94987.20;107887;1279;37178;-75
2021/12/24 09:30:35;;;;;;;2.80;1.90;;;;;;;2.47;94.81;94978.60;107896;1282;36310;-75
2021/12/24 09:33:06;;;;;;;3.80;2.10;;;;;;;2.59;94.71;94972.39;108047;1282;36212;-75
2021/12/24 09:35:34;;;;;;;3.30;1.60;;;;;;;2.65;94.34;94968.86;107895;1283;35406;-75
2021/12/24 09:38:04;;;;;;;4.20;2.30;;;;;;;2.69;94.12;94964.50;107887;1283;39239;-75
2021/12/24 09:40:35;;;;;;;4.10;2.30;;;;;;;2.78;94.02;94968.73;107929;1282;38585;-75
2021/12/24 09:43:04;;;;;;;1.90;1.20;;;;;;;2.81;93.77;94961.04;107899;1284;43121;-74
2021/12/24 09:45:33;;;;;;;1.80;1.50;;;;;;;2.87;93.54;94961.48;107931;1283;37953;-75
2021/12/24 09:48:01;;;;;;;3.10;1.90;;;;;;;2.89;93.30;94949.39;107902;1284;36288;-75
2021/12/24 09:50:29;;;;;;;3.20;1.60;;;;;;;2.89;93.28;94938.14;108005;1282;38492;-75
2021/12/24 09:53:00;;;;;;;2.00;1.30;;;;;;;2.86;93.13;94943.86;107883;1282;33887;-75
2021/12/24 09:55:30;;;;;;;3.60;2.40;;;;;;;2.87;93.13;94948.24;108025;1282;37254;-75
2021/12/24 09:57:59;;;;;;;2.40;1.80;;;;;;;2.89;93.14;94940.27;107942;1283;32916;-75
2021/12/24 10:00:28;;;;;;;4.60;2.10;;;;;;;2.92;93.13;94944.75;107976;1281;35513;-75
2021/12/24 10:02:58;;;;;;;2.80;2.00;;;;;;;2.94;93.05;94935.84;108005;1283;31507;-74
2021/12/24 10:05:31;;;;;;;2.10;1.50;;;;;;;2.99;92.93;94942.32;107998;1283;29668;-75
2021/12/24 10:08:01;;;;;;;3.70;2.10;;;;;;;3.05;92.86;94940.77;107956;1282;28557;-75
2021/12/24 10:10:31;;;;;;;1.70;1.10;;;;;;;3.06;92.67;94944.67;107947;1283;34229;-74
2021/12/24 10:13:31;;;;;;;1.80;1.40;;;;;;;3.04;92.45;94929.04;108074;1281;38599;-75
2021/12/24 10:16:02;;;;;;;2.30;1.60;;;;;;;3.07;92.32;94941.21;107934;1284;36657;-75
2021/12/24 10:18:39;;;;;;;3.30;2.20;;;;;;;3.06;92.20;94948.91;107922;1281;30925;-75
2021/12/24 10:21:14;;;;;;;5.70;3.20;;;;;;;3.04;92.20;94936.77;107881;1283;32347;-75
2021/12/24 10:23:50;;;;;;;5.00;3.10;;;;;;;3.06;92.08;94930.70;108061;1283;30650;-75
2021/12/24 10:26:23;;;;;;;3.30;2.40;;;;;;;3.06;92.11;94931.74;107952;1283;31235;-75
2021/12/24 10:29:04;;;;;;;5.30;2.30;;;;;;;3.07;92.15;94930.59;107922;1283;40133;-75
2021/12/24 10:31:33;;;;;;;;;;;;;;;3.11;92.19;94909.05;107912;1283;39849;-75
2021/12/24 10:34:16;;;;;;;4.10;2.50;;;;;;;3.12;92.19;94913.39;107918;1283;36267;-75
2021/12/24 10:37:05;;;;;;;4.30;2.30;;;;;;;3.13;92.37;94915.38;107960;1281;31519;-74
2021/12/24 10:39:38;;;;;;;4.10;2.50;;;;;;;3.16;92.17;94909.39;108047;1282;36087;-74
2021/12/24 10:42:12;;;;;;;3.50;2.20;;;;;;;3.19;92.13;94911.88;107868;1284;36128;-75
2021/12/24 10:44:42;;;;;;;3.40;1.90;;;;;;;3.20;92.00;94902.01;107911;1283;33063;-74
2021/12/24 10:47:15;;;;;;;3.70;1.90;;;;;;;3.24;92.07;94898.95;108139;1279;33614;-75
2021/12/24 10:55:38;;;;;;;3.40;1.80;;;;;;;3.33;91.74;94899.56;108045;1282;32845;-74
2021/12/24 10:58:14;;;;;;;2.90;1.40;;;;;;;3.34;91.77;94896.67;108072;1283;31915;-75
2021/12/24 11:00:46;;;;;;;3.10;1.70;;;;;;;3.35;91.74;94879.79;108096;1279;31209;-75
2021/12/24 11:03:19;;;;;;;4.70;2.00;;;;;;;3.39;91.83;94892.05;108183;1283;34081;-75
2021/12/24 11:05:49;;;;;;;4.70;2.10;;;;;;;3.41;91.71;94883.95;108043;1282;35796;-75
2021/12/24 11:08:19;;;;;;;4.50;2.20;;;;;;;3.44;91.66;94876.53;108082;1283;30224;-75
2021/12/24 11:10:50;;;;;;;3.30;1.80;;;;;;;3.47;91.66;94874.83;108050;1282;35256;-75
2021/12/24 11:13:27;;;;;;;3.80;2.20;;;;;;;3.44;91.69;94875.11;108052;1282;33926;-75
2021/12/24 11:15:57;;;;;;;4.20;2.50;;;;;;;3.40;91.70;94870.81;108138;1282;30417;-74
2021/12/24 11:18:27;;;;;;;4.80;2.60;;;;;;;3.39;91.85;94867.52;108166;1283;35605;-74
2021/12/24 11:20:56;;;;;;;;;;;;;;;3.46;91.94;94883.22;108129;1282;38313;-75
2021/12/24 11:23:25;;;;;;;2.60;1.80;;;;;;;3.48;91.93;94893.45;108154;1282;38257;-75
2021/12/24 11:25:55;;;;;;;2.60;1.60;;;;;;;3.48;91.97;94885.76;108130;1281;31970;-75
2021/12/24 11:28:25;;;;;;;4.20;2.30;;;;;;;3.56;91.93;94883.02;107971;1283;30694;-75
2021/12/24 11:30:57;;;;;;;3.60;2.10;;;;;;;3.60;91.80;94882.52;108121;1284;33359;-75
2021/12/24 11:33:27;;;;;;;5.40;2.20;;;;;;;3.62;91.80;94875.05;107973;1283;39184;-75
2021/12/24 11:35:57;;;;;;;3.30;1.80;;;;;;;3.64;91.90;94870.32;108026;1282;30405;-75
2021/12/24 11:38:28;;;;;;;4.00;2.20;;;;;;;3.69;91.96;94850.36;107969;1282;34518;-75
2021/12/24 11:41:00;;;;;;;3.40;2.10;;;;;;;3.71;91.84;94860.56;108137;1283;38641;-75
2021/12/24 11:43:30;;;;;;;4.50;2.10;;;;;;;3.70;91.76;94850.25;106953;1281;1708626;-75
2021/12/24 11:46:00;;;;;;;2.60;1.90;;;;;;;3.71;91.84;94867.08;108109;1282;33815;-74
2021/12/24 11:48:32;;;;;;;4.40;2.70;;;;;;;3.68;91.79;94863.43;107997;1284;35854;-75
2021/12/24 11:51:03;;;;;;;3.50;2.00;;;;;;;3.70;91.69;94859.53;107896;1284;35525;-74
2021/12/24 11:53:33;;;;;;;4.10;2.60;;;;;;;3.70;91.77;94857.44;108055;1282;40603;-75
2021/12/24 11:56:03;;;;;;;;;;;;;;;3.71;91.77;94860.52;107990;1282;39863;-75
2021/12/24 11:58:32;;;;;;;2.80;2.10;;;;;;;3.73;91.79;94868.57;108065;1283;29163;-74
2021/12/24 12:01:06;;;;;;;3.30;2.30;;;;;;;3.74;91.69;94864.20;107901;1283;49195;-75
2021/12/24 12:03:37;;;;;;;4.60;2.50;;;;;;;3.79;91.73;94862.27;107919;1282;38832;-74
2021/12/24 12:06:10;;;;;;;3.40;1.60;;;;;;;3.87;91.48;94847.45;108129;1283;35504;-74
2021/12/24 12:08:41;;;;;;;4.30;2.30;;;;;;;3.98;91.48;94856.09;108049;1283;35451;-74
2021/12/24 12:11:19;;;;;;;3.50;1.90;;;;;;;4.07;91.24;94853.61;108082;1283;33921;-74
2021/12/24 12:13:54;;;;;;;5.80;2.50;;;;;;;4.12;91.06;94850.06;108119;1282;36218;-74
2021/12/24 12:16:25;;;;;;;4.30;2.40;;;;;;;4.18;91.02;94855.59;108108;1278;30526;-74
2021/12/24 12:19:15;;;;;;;6.10;2.70;;;;;;;4.21;90.73;94853.73;108159;1283;37102;-74
2021/12/24 12:22:13;;;;;;;4.60;2.70;;;;;;;4.17;90.78;94855.45;108075;1282;32292;-74
2021/12/24 12:27:34;;;;;;;3.90;2.20;;;;;;;4.15;90.87;94856.84;108194;1282;34035;-73
2021/12/24 12:30:24;;;;;;;6.70;3.10;;;;;;;4.18;90.97;94836.91;108106;1284;35201;-74
2021/12/24 12:33:03;;;;;;;5.00;3.10;;;;;;;4.20;90.78;94838.16;108031;1281;40740;-73
2021/12/24 12:35:41;;;;;;;4.10;2.40;;;;;;;4.24;90.67;94838.50;107980;1283;31633;-74
2021/12/24 12:38:30;;;;;;;4.30;2.50;;;;;;;4.24;90.58;94836.19;107912;1283;33843;-74
2021/12/24 12:41:20;;;;;;;5.30;2.70;;;;;;;4.26;90.66;94828.07;107999;1284;32612;-74
2021/12/24 12:43:50;;;;;;;4.10;1.70;;;;;;;4.28;90.68;94823.16;108089;1283;31397;-73
2021/12/24 12:46:26;;;;;;;4.70;2.20;;;;;;;4.34;90.69;94813.91;107962;1283;37123;-74
2021/12/24 12:48:56;;;;;;;6.60;2.90;;;;;;;4.40;90.75;94827.05;108013;1281;30345;-74
2021/12/24 12:51:49;;;;;;;5.60;2.30;;;;;;;4.44;90.51;94834.40;107984;1282;30780;-73
2021/12/24 12:54:42;;;;;;;5.70;2.30;;;;;;;4.47;90.44;94834.39;108063;1282;36281;-74
2021/12/24 12:57:27;;;;;;;3.60;2.50;;;;;;;4.48;90.39;94851.71;108055;1282;37701;-74
2021/12/24 13:00:32;;;;;;;7.70;3.20;;;;;;;4.44;90.33;94854.34;108051;1283;28525;-73
2021/12/24 13:03:12;;;;;;;3.80;1.70;;;;;;;4.39;90.43;94839.72;107913;1283;37978;-74
2021/12/24 13:06:08;;;;;;;2.10;1.70;;;;;;;4.36;90.59;94845.84;107962;1283;36355;-73
2021/12/24 13:08:39;;;;;;;4.70;2.50;;;;;;;4.33;90.54;94838.52;108037;1283;37214;-74